This is the latest recevied weather packets stored in our database for station/object N4VTB-13. If no packets are shown the sender has not sent any weather packets the latest 10 day(s).
| Time | Temp. | Humidity | Pressure | Rain* | Wind** | Luminosity | Snow |
|---|---|---|---|---|---|---|---|
| 1777992076 | 12.78° C | 87% | 1016.1 hPa | 0 mm | - | 42 W/m² | - |
| 1777990876 | 12.22° C | 88% | 1015.9 hPa | 0 mm | - | 30 W/m² | - |
| 1777989676 | 12.22° C | 89% | 1015.8 hPa | 0 mm | - | 23 W/m² | - |
| 1777988496 | 12.22° C | 89% | 1015.6 hPa | 0 mm | - | 17 W/m² | - |
| 1777985476 | 11.67° C | 91% | 1015.1 hPa | 0 mm | - | 0 W/m² | - |
| 1777984876 | 11.67° C | 91% | 1015 hPa | 0 mm | - | 0 W/m² | - |
| 1777984276 | 11.11° C | 91% | 1014.9 hPa | 0 mm | - | 0 W/m² | - |
| 1777982476 | 11.11° C | 90% | 1014.8 hPa | 0 mm | - | 0 W/m² | - |
| 1777981276 | 11.67° C | 91% | 1014.7 hPa | 0 mm | - | 0 W/m² | - |
| 1777980076 | 11.11° C | 90% | 1014.7 hPa | 0 mm | - | 0 W/m² | - |
| 1777971076 | 12.78° C | 85% | 1013.7 hPa | 0 mm | - | 0 W/m² | - |
| 1777970476 | 12.78° C | 84% | 1013.7 hPa | 0 mm | - | 0 W/m² | - |
| 1777962076 | 16.11° C | 75% | 1012.3 hPa | 0 mm | - | 0 W/m² | - |
| 1777961496 | 16.11° C | 73% | 1012.3 hPa | 0 mm | - | 0 W/m² | - |
| 1777952476 | 19.44° C | 57% | 1010.8 hPa | 0 mm | - | 0 W/m² | - |
| 1777948275 | 23.33° C | 51% | 1010.2 hPa | 0 mm | - | 16 W/m² | - |
| 1777944075 | 25.56° C | 40% | 1010.2 hPa | 0 mm | - | 60 W/m² | - |
| 1777938075 | 26.11° C | 37% | 1010.4 hPa | 0 mm | - | 47 W/m² | - |
| 1777936275 | 26.67° C | 36% | 1010.6 hPa | 0 mm | - | 111 W/m² | - |
| 1777932677 | 26.11° C | 37% | 1011.2 hPa | 0 mm | - | 111 W/m² | - |
| 1777929097 | 26.67° C | 32% | 1011.5 hPa | 0 mm | - | 76 W/m² | - |
| 1777926677 | 27.22° C | 37% | 1011.6 hPa | 0 mm | - | 833 W/m² | - |
| 1777926077 | 26.67° C | 38% | 1011.5 hPa | 0 mm | - | 751 W/m² | - |
| 1777923677 | 26.11° C | 40% | 1011.7 hPa | 0 mm | - | 744 W/m² | - |
| 1777920677 | 24.44° C | 42% | 1012 hPa | 0 mm | - | 767 W/m² | - |
* Rain latest hour (hover to see other rain measurements)
** Current wind speed in m/s (hover to see current wind gust speed)